createdAt,value
2019-06-26T00:02:26.264Z,100.00
2019-06-26T00:04:52.601Z,100.00
2019-06-26T00:07:18.908Z,100.00
2019-06-26T00:09:45.245Z,100.00
2019-06-26T00:12:11.551Z,100.00
2019-06-26T00:14:39.027Z,100.00
2019-06-26T00:17:04.196Z,100.00
2019-06-26T00:19:30.534Z,100.00
2019-06-26T00:21:56.834Z,100.00
2019-06-26T00:24:23.145Z,100.00
2019-06-26T00:26:49.484Z,100.00
2019-06-26T00:29:15.833Z,100.00
2019-06-26T00:31:42.161Z,100.00
2019-06-26T00:34:08.475Z,100.00
2019-06-26T00:36:34.803Z,100.00
2019-06-26T00:39:01.119Z,100.00
2019-06-26T00:41:27.450Z,100.00
2019-06-26T00:43:53.774Z,100.00
2019-06-26T00:46:20.108Z,100.00
2019-06-26T00:48:46.418Z,100.00
2019-06-26T00:51:12.724Z,100.00
2019-06-26T00:53:39.053Z,100.00
2019-06-26T00:56:05.420Z,100.00
2019-06-26T00:58:31.708Z,100.00
2019-06-26T01:00:58.019Z,100.00
2019-06-26T01:03:24.333Z,100.00
2019-06-26T01:05:50.668Z,100.00
2019-06-26T01:08:16.983Z,100.00
2019-06-26T01:10:43.317Z,100.00
2019-06-26T01:13:09.636Z,100.00
2019-06-26T01:15:35.940Z,100.00
2019-06-26T01:18:02.269Z,100.00
2019-06-26T01:20:28.582Z,100.00
2019-06-26T01:22:54.893Z,100.00
2019-06-26T01:25:21.230Z,100.00
2019-06-26T01:27:47.536Z,100.00
2019-06-26T01:30:13.878Z,100.00
2019-06-26T01:32:40.180Z,100.00
2019-06-26T01:35:06.516Z,100.00
2019-06-26T01:37:32.823Z,100.00
2019-06-26T01:39:59.162Z,100.00
2019-06-26T01:42:25.487Z,99.46
2019-06-26T01:44:51.797Z,99.46
2019-06-26T01:47:18.130Z,97.42
2019-06-26T01:49:44.445Z,97.05
2019-06-26T01:52:10.775Z,98.49
2019-06-26T01:54:37.096Z,98.73
2019-06-26T01:57:03.424Z,97.57
2019-06-26T01:59:29.750Z,98.24
2019-06-26T02:01:56.042Z,98.51
2019-06-26T02:04:22.366Z,98.41
2019-06-26T02:06:48.673Z,97.79
2019-06-26T02:09:15.001Z,99.01
2019-06-26T02:11:41.305Z,99.71
2019-06-26T02:14:07.630Z,99.92
2019-06-26T02:16:33.938Z,99.76
2019-06-26T02:19:00.269Z,100.00
2019-06-26T02:21:26.597Z,100.00
2019-06-26T02:23:52.902Z,100.00
2019-06-26T02:26:19.238Z,100.00
2019-06-26T02:28:45.552Z,100.00
2019-06-26T02:31:11.855Z,100.00
2019-06-26T02:33:38.186Z,100.00
2019-06-26T02:36:04.496Z,100.00
2019-06-26T02:38:30.829Z,100.00
2019-06-26T02:40:57.156Z,100.00
2019-06-26T02:43:23.483Z,100.00
2019-06-26T02:45:49.803Z,100.00
2019-06-26T02:48:16.107Z,99.85
2019-06-26T02:50:42.432Z,97.43
2019-06-26T02:53:08.733Z,96.66
2019-06-26T02:55:35.066Z,96.57
2019-06-26T02:58:01.365Z,97.91
2019-06-26T03:00:27.683Z,99.13
2019-06-26T03:02:54.001Z,99.99
2019-06-26T03:05:20.311Z,100.00
2019-06-26T03:07:46.704Z,100.00
2019-06-26T03:10:13.033Z,100.00
2019-06-26T03:12:39.345Z,100.00
2019-06-26T03:15:09.196Z,99.46
2019-06-26T03:17:31.979Z,97.71
2019-06-26T03:19:58.287Z,96.80
2019-06-26T03:22:24.610Z,94.90
2019-06-26T03:24:50.914Z,93.67
2019-06-26T03:27:17.249Z,94.00
2019-06-26T03:29:43.554Z,95.30
2019-06-26T03:32:09.880Z,95.25
2019-06-26T03:34:36.189Z,96.96
2019-06-26T03:37:02.521Z,98.45
2019-06-26T03:39:28.858Z,99.34
2019-06-26T03:41:55.164Z,99.90
2019-06-26T03:44:21.476Z,100.00
2019-06-26T03:46:47.787Z,100.00
2019-06-26T03:49:14.092Z,100.00
2019-06-26T03:51:40.440Z,99.81
2019-06-26T03:54:06.722Z,100.00
2019-06-26T03:56:33.059Z,100.00
2019-06-26T03:58:59.386Z,100.00
2019-06-26T04:01:25.688Z,99.94
2019-06-26T04:03:52.028Z,98.70
2019-06-26T04:06:18.328Z,98.66
2019-06-26T04:08:44.730Z,99.83
2019-06-26T04:11:10.965Z,100.00
2019-06-26T04:13:37.308Z,100.00
2019-06-26T04:16:03.614Z,100.00
2019-06-26T04:18:29.920Z,100.00
2019-06-26T04:20:56.320Z,100.00
2019-06-26T04:23:22.949Z,100.00
2019-06-26T04:25:48.957Z,100.00
2019-06-26T04:28:15.262Z,100.00
2019-06-26T04:30:41.583Z,100.00
2019-06-26T04:33:07.895Z,100.00
2019-06-26T04:35:34.221Z,100.00
2019-06-26T04:38:00.547Z,100.00
2019-06-26T04:40:26.851Z,100.00
2019-06-26T04:42:53.182Z,98.50
2019-06-26T04:45:19.516Z,98.21
2019-06-26T04:47:45.846Z,97.89
2019-06-26T04:50:12.140Z,96.67
2019-06-26T04:52:38.471Z,96.02
2019-06-26T04:55:04.772Z,95.38
2019-06-26T04:57:31.079Z,94.40
2019-06-26T04:59:57.424Z,94.47
2019-06-26T05:02:23.748Z,95.69
2019-06-26T05:04:50.092Z,96.47
2019-06-26T05:07:16.421Z,96.50
2019-06-26T05:09:42.721Z,97.59
2019-06-26T05:12:09.791Z,98.61
2019-06-26T05:14:36.093Z,99.31
2019-06-26T05:17:02.425Z,99.60
2019-06-26T05:19:28.738Z,100.00
2019-06-26T05:21:55.156Z,100.00
2019-06-26T05:24:21.485Z,100.00
2019-06-26T05:26:47.799Z,100.00
2019-06-26T05:29:14.125Z,100.00
2019-06-26T05:31:40.433Z,100.00
2019-06-26T05:34:10.520Z,100.00
2019-06-26T05:36:33.095Z,100.00
2019-06-26T05:38:59.402Z,100.00
2019-06-26T05:41:25.733Z,99.84
2019-06-26T05:43:52.110Z,99.99
2019-06-26T05:46:30.564Z,100.00
2019-06-26T05:48:44.696Z,99.53
2019-06-26T05:51:10.996Z,98.90
2019-06-26T05:53:37.296Z,99.48
2019-06-26T05:56:03.597Z,99.25
2019-06-26T05:58:29.922Z,98.71
2019-06-26T06:00:56.222Z,95.48
2019-06-26T06:03:22.548Z,94.93
2019-06-26T06:05:48.858Z,94.77
2019-06-26T06:08:15.200Z,93.03
2019-06-26T06:10:41.519Z,91.49
2019-06-26T06:13:07.887Z,89.27
2019-06-26T06:15:34.212Z,87.35
2019-06-26T06:18:00.516Z,84.58
2019-06-26T06:20:26.843Z,85.44
2019-06-26T06:22:53.152Z,85.51
2019-06-26T06:25:19.475Z,85.80
2019-06-26T06:27:45.794Z,86.12
2019-06-26T06:30:12.100Z,86.62
2019-06-26T06:32:38.428Z,86.97
2019-06-26T06:35:04.776Z,86.55
2019-06-26T06:37:31.147Z,86.39
2019-06-26T06:39:57.471Z,84.32
2019-06-26T06:42:23.862Z,83.91
2019-06-26T06:44:50.178Z,83.69
2019-06-26T06:47:16.483Z,82.73
2019-06-26T06:49:42.814Z,81.02
2019-06-26T06:52:09.134Z,80.26
2019-06-26T06:54:35.424Z,77.97
2019-06-26T06:57:01.748Z,77.62
2019-06-26T06:59:28.094Z,75.74
2019-06-26T07:01:54.420Z,75.57
2019-06-26T07:04:20.724Z,74.25
2019-06-26T07:06:47.060Z,73.57
2019-06-26T07:09:13.363Z,72.57
2019-06-26T07:11:39.711Z,72.36
2019-06-26T07:14:06.052Z,73.33
2019-06-26T07:16:32.353Z,73.97
2019-06-26T07:18:58.687Z,73.52
2019-06-26T07:21:24.985Z,72.55
2019-06-26T07:23:51.311Z,71.10
2019-06-26T07:26:17.618Z,72.05
2019-06-26T07:28:43.949Z,74.14
2019-06-26T07:31:10.331Z,73.55
2019-06-26T07:33:36.719Z,73.34
2019-06-26T07:36:03.040Z,71.80
2019-06-26T07:38:29.351Z,71.85
2019-06-26T07:40:55.693Z,72.10
2019-06-26T07:43:22.007Z,71.53
2019-06-26T07:45:48.309Z,70.43
2019-06-26T07:48:14.652Z,71.00
2019-06-26T07:50:41.000Z,72.83
2019-06-26T07:53:07.323Z,73.43
2019-06-26T07:55:33.656Z,73.79
2019-06-26T07:57:59.985Z,72.02
2019-06-26T08:00:26.316Z,71.28
2019-06-26T08:02:52.620Z,71.39
2019-06-26T08:05:18.955Z,71.64
2019-06-26T08:07:45.253Z,71.09
2019-06-26T08:10:11.586Z,70.76
2019-06-26T08:12:37.903Z,69.63
2019-06-26T08:15:04.209Z,69.00
2019-06-26T08:17:30.540Z,68.22
2019-06-26T08:19:56.862Z,68.13
2019-06-26T08:22:23.216Z,67.42
2019-06-26T08:24:49.545Z,66.58
2019-06-26T08:27:15.852Z,64.92
2019-06-26T08:29:42.179Z,63.78
2019-06-26T08:32:08.496Z,64.31
2019-06-26T08:34:34.818Z,64.20
2019-06-26T08:37:01.137Z,63.06
2019-06-26T08:39:27.446Z,62.93
2019-06-26T08:41:53.766Z,63.96
2019-06-26T08:44:20.085Z,63.67
2019-06-26T08:46:46.436Z,63.10
2019-06-26T08:49:24.882Z,63.11
2019-06-26T08:51:39.056Z,61.49
2019-06-26T08:54:05.383Z,62.02
2019-06-26T08:56:31.684Z,63.01
2019-06-26T08:58:58.021Z,63.73
2019-06-26T09:01:24.342Z,62.97
2019-06-26T09:03:50.650Z,61.52
2019-06-26T09:06:16.980Z,61.52
2019-06-26T09:08:43.293Z,60.60
2019-06-26T09:11:09.601Z,62.18
2019-06-26T09:13:35.934Z,62.94
2019-06-26T09:16:02.252Z,63.41
2019-06-26T09:18:35.344Z,63.69
2019-06-26T09:20:54.918Z,63.92
2019-06-26T09:23:21.238Z,63.90
2019-06-26T09:25:47.544Z,64.23
2019-06-26T09:28:13.870Z,64.05
2019-06-26T09:30:40.192Z,64.59
2019-06-26T09:33:06.488Z,63.72
2019-06-26T09:35:32.818Z,64.30
2019-06-26T09:37:59.155Z,64.70
2019-06-26T09:40:25.452Z,64.70
2019-06-26T09:42:51.758Z,64.77
2019-06-26T09:45:18.088Z,64.84
2019-06-26T09:47:44.394Z,64.84
2019-06-26T09:50:10.700Z,64.20
2019-06-26T09:52:37.023Z,64.65
2019-06-26T09:55:03.324Z,64.56
2019-06-26T09:57:29.651Z,64.27
2019-06-26T09:59:55.957Z,64.15
2019-06-26T10:02:22.306Z,64.53
2019-06-26T10:04:48.612Z,64.24
2019-06-26T10:07:14.941Z,64.20
2019-06-26T10:09:41.266Z,63.33
2019-06-26T10:12:07.571Z,63.32
2019-06-26T10:14:46.577Z,62.80
2019-06-26T10:17:00.215Z,62.50
2019-06-26T10:19:26.533Z,62.02
2019-06-26T10:21:52.859Z,62.01
2019-06-26T10:24:19.169Z,62.57
2019-06-26T10:26:45.498Z,62.43
2019-06-26T10:29:11.820Z,61.40
2019-06-26T10:31:38.144Z,61.50
2019-06-26T10:34:04.475Z,61.79
2019-06-26T10:36:30.789Z,61.55
2019-06-26T10:38:57.112Z,61.71
2019-06-26T10:41:23.421Z,60.89
2019-06-26T10:43:49.755Z,60.39
2019-06-26T10:46:16.059Z,59.16
2019-06-26T10:48:42.373Z,59.09
2019-06-26T10:51:08.731Z,58.75
2019-06-26T10:53:35.033Z,58.97
2019-06-26T10:56:01.368Z,59.28
2019-06-26T10:58:27.679Z,59.41
2019-06-26T11:00:53.997Z,59.55
2019-06-26T11:03:20.300Z,60.08
2019-06-26T11:05:46.659Z,59.83
2019-06-26T11:08:12.952Z,59.78
2019-06-26T11:10:39.270Z,58.96
2019-06-26T11:13:05.591Z,58.95
2019-06-26T11:15:31.893Z,58.80
2019-06-26T11:17:58.215Z,58.70
2019-06-26T11:20:24.524Z,58.24
2019-06-26T11:22:50.872Z,58.05
2019-06-26T11:25:17.168Z,58.13
2019-06-26T11:27:43.461Z,58.11
2019-06-26T11:30:09.807Z,58.32
2019-06-26T11:32:36.130Z,57.62
2019-06-26T11:35:02.580Z,58.02
2019-06-26T11:37:28.809Z,58.36
2019-06-26T11:39:55.164Z,58.52
2019-06-26T11:42:21.456Z,58.80
2019-06-26T11:44:47.740Z,59.29
2019-06-26T11:47:14.056Z,59.25
2019-06-26T11:49:40.385Z,58.58
2019-06-26T11:52:06.706Z,58.39
2019-06-26T11:54:33.008Z,58.33
2019-06-26T11:56:59.317Z,58.12
2019-06-26T11:59:25.638Z,58.12
2019-06-26T12:01:51.971Z,58.03
2019-06-26T12:04:18.281Z,57.96
2019-06-26T12:06:46.082Z,58.17
2019-06-26T12:09:10.905Z,58.52
2019-06-26T12:11:37.240Z,58.15
2019-06-26T12:14:03.542Z,58.36
2019-06-26T12:16:29.888Z,58.54
2019-06-26T12:18:56.193Z,58.62
2019-06-26T12:21:22.517Z,58.51
2019-06-26T12:23:48.821Z,59.13
2019-06-26T12:26:15.128Z,59.58
2019-06-26T12:28:41.451Z,59.63
2019-06-26T12:31:07.762Z,59.38
2019-06-26T12:33:34.093Z,59.41
2019-06-26T12:36:00.404Z,59.08
2019-06-26T12:38:26.732Z,58.70
2019-06-26T12:40:53.036Z,58.96
2019-06-26T12:43:19.368Z,58.77
2019-06-26T12:45:45.692Z,58.66
2019-06-26T12:48:15.206Z,58.31
2019-06-26T12:50:38.321Z,58.66
2019-06-26T12:53:04.620Z,58.63
2019-06-26T12:55:33.025Z,58.91
2019-06-26T12:58:11.739Z,58.55
2019-06-26T13:00:23.580Z,58.96
2019-06-26T13:02:49.888Z,58.84
2019-06-26T13:05:16.210Z,58.45
2019-06-26T13:07:42.517Z,58.37
2019-06-26T13:10:08.840Z,58.55
2019-06-26T13:12:35.150Z,58.08
2019-06-26T13:15:01.479Z,57.93
2019-06-26T13:17:27.808Z,58.07
2019-06-26T13:19:54.142Z,58.58
2019-06-26T13:22:20.443Z,57.66
2019-06-26T13:24:46.734Z,57.86
2019-06-26T13:27:13.064Z,57.59
2019-06-26T13:29:39.369Z,57.60
2019-06-26T13:32:05.701Z,57.79
2019-06-26T13:34:32.022Z,57.94
2019-06-26T13:36:58.329Z,58.10
2019-06-26T13:39:24.660Z,58.49
2019-06-26T13:41:50.964Z,58.55
2019-06-26T13:44:17.269Z,58.45
2019-06-26T13:46:43.611Z,58.03
2019-06-26T13:49:09.921Z,57.32
2019-06-26T13:51:36.354Z,57.88
2019-06-26T13:54:02.592Z,57.67
2019-06-26T13:56:28.910Z,58.12
2019-06-26T13:58:55.212Z,58.76
2019-06-26T14:01:23.147Z,58.63
2019-06-26T14:03:47.870Z,58.48
2019-06-26T14:06:14.188Z,58.99
2019-06-26T14:08:40.560Z,58.66
2019-06-26T14:11:07.662Z,58.85
2019-06-26T14:13:33.168Z,58.88
2019-06-26T14:15:59.492Z,59.08
2019-06-26T14:18:25.819Z,58.67
2019-06-26T14:20:52.144Z,58.97
2019-06-26T14:23:18.475Z,60.94
2019-06-26T14:25:44.783Z,62.92
2019-06-26T14:28:11.123Z,63.10
2019-06-26T14:30:37.430Z,61.49
2019-06-26T14:33:03.755Z,62.72
2019-06-26T14:35:30.055Z,62.53
2019-06-26T14:37:56.388Z,63.95
2019-06-26T14:40:22.692Z,64.92
2019-06-26T14:42:49.178Z,62.04
2019-06-26T14:45:15.324Z,62.65
2019-06-26T14:47:41.630Z,63.01
2019-06-26T14:50:07.969Z,64.25
2019-06-26T14:52:35.222Z,62.91
2019-06-26T14:55:00.615Z,65.39
2019-06-26T14:57:26.924Z,65.63
2019-06-26T14:59:53.247Z,65.59
2019-06-26T15:02:19.571Z,64.79
2019-06-26T15:04:46.238Z,65.54
2019-06-26T15:07:12.214Z,65.68
2019-06-26T15:09:38.518Z,67.29
2019-06-26T15:12:04.856Z,64.17
2019-06-26T15:14:31.161Z,64.05
2019-06-26T15:16:57.490Z,64.59
2019-06-26T15:19:23.799Z,65.20
2019-06-26T15:21:58.240Z,65.77
2019-06-26T15:24:16.479Z,65.77
2019-06-26T15:26:42.782Z,65.97
2019-06-26T15:29:09.118Z,65.20
2019-06-26T15:31:35.436Z,65.67
2019-06-26T15:34:01.755Z,64.26
2019-06-26T15:36:28.082Z,65.87
2019-06-26T15:38:54.388Z,66.54
2019-06-26T15:41:20.704Z,68.39
2019-06-26T15:43:47.045Z,67.86
2019-06-26T15:46:13.338Z,67.47
2019-06-26T15:48:39.746Z,67.09
2019-06-26T15:51:05.965Z,64.80
2019-06-26T15:53:32.295Z,63.58
2019-06-26T15:55:58.596Z,63.99
2019-06-26T15:58:24.927Z,63.70
2019-06-26T16:00:51.245Z,61.04
2019-06-26T16:03:17.552Z,62.92
2019-06-26T16:05:43.874Z,63.25
2019-06-26T16:08:10.181Z,64.61
2019-06-26T16:10:36.497Z,65.58
2019-06-26T16:13:02.825Z,66.27
2019-06-26T16:15:29.151Z,66.08
2019-06-26T16:17:55.457Z,65.54
2019-06-26T16:20:21.759Z,64.19
2019-06-26T16:22:48.127Z,64.66
2019-06-26T16:25:14.427Z,65.64
2019-06-26T16:27:40.751Z,64.89
2019-06-26T16:30:07.072Z,65.37
2019-06-26T16:32:33.407Z,65.74
2019-06-26T16:34:59.721Z,67.28
2019-06-26T16:37:26.051Z,66.59
2019-06-26T16:39:52.375Z,64.38
2019-06-26T16:42:18.682Z,63.50
2019-06-26T16:44:45.008Z,62.97
2019-06-26T16:47:11.312Z,64.71
2019-06-26T16:49:37.627Z,66.31
2019-06-26T16:52:04.040Z,67.48
2019-06-26T16:54:30.257Z,67.38
2019-06-26T16:56:56.582Z,67.87
2019-06-26T16:59:22.905Z,68.47
2019-06-26T17:01:49.212Z,66.46
2019-06-26T17:04:15.543Z,65.99
2019-06-26T17:06:41.962Z,66.36
2019-06-26T17:09:08.530Z,68.24
2019-06-26T17:11:34.836Z,66.87
2019-06-26T17:14:01.205Z,68.92
2019-06-26T17:16:27.522Z,69.49
2019-06-26T17:18:53.826Z,69.54
2019-06-26T17:21:20.151Z,69.84
2019-06-26T17:23:46.462Z,69.77
2019-06-26T17:26:12.787Z,70.29
2019-06-26T17:28:39.096Z,70.32
2019-06-26T17:31:05.520Z,70.93
2019-06-26T17:33:31.822Z,71.16
2019-06-26T17:35:58.142Z,71.19
2019-06-26T17:38:24.471Z,72.26
2019-06-26T17:40:50.780Z,72.16
2019-06-26T17:43:17.109Z,72.45
2019-06-26T17:45:43.413Z,72.22
2019-06-26T17:48:09.740Z,72.13
2019-06-26T17:50:36.050Z,72.51
2019-06-26T17:53:02.375Z,73.13
2019-06-26T17:55:28.686Z,72.81
2019-06-26T17:57:54.990Z,73.07
2019-06-26T18:00:21.319Z,72.92
2019-06-26T18:02:47.620Z,73.96
2019-06-26T18:05:13.947Z,74.26
2019-06-26T18:07:40.274Z,75.06
2019-06-26T18:10:06.578Z,74.93
2019-06-26T18:12:32.903Z,75.01
2019-06-26T18:14:59.207Z,72.95
2019-06-26T18:17:25.518Z,74.23
2019-06-26T18:19:53.898Z,73.87
2019-06-26T18:22:18.142Z,75.42
2019-06-26T18:24:44.510Z,75.63
2019-06-26T18:27:10.781Z,75.87
2019-06-26T18:29:37.155Z,76.99
2019-06-26T18:32:03.466Z,77.69
2019-06-26T18:34:29.904Z,78.54
2019-06-26T18:36:56.116Z,78.28
2019-06-26T18:39:22.436Z,78.52
2019-06-26T18:41:48.763Z,79.54
2019-06-26T18:44:15.072Z,79.68
2019-06-26T18:46:41.392Z,81.06
2019-06-26T18:49:07.729Z,83.37
2019-06-26T18:51:34.029Z,82.57
2019-06-26T18:54:01.228Z,82.61
2019-06-26T18:56:26.679Z,83.10
2019-06-26T18:58:53.014Z,84.85
2019-06-26T19:01:19.353Z,85.62
2019-06-26T19:03:45.632Z,86.02
2019-06-26T19:06:11.996Z,86.20
2019-06-26T19:08:38.401Z,86.85
2019-06-26T19:11:04.760Z,86.39
2019-06-26T19:13:31.061Z,87.26
2019-06-26T19:15:57.370Z,87.71
2019-06-26T19:18:23.725Z,87.77
2019-06-26T19:20:50.001Z,89.75
2019-06-26T19:23:16.319Z,87.13
2019-06-26T19:25:42.649Z,87.59
2019-06-26T19:28:08.963Z,89.46
2019-06-26T19:30:35.288Z,89.08
2019-06-26T19:33:01.645Z,88.97
2019-06-26T19:35:27.933Z,88.54
2019-06-26T19:37:54.261Z,89.06
2019-06-26T19:40:23.834Z,90.19
2019-06-26T19:42:46.907Z,89.52
2019-06-26T19:45:13.259Z,88.05
2019-06-26T19:47:39.587Z,88.04
2019-06-26T19:50:05.892Z,86.75
2019-06-26T19:52:32.241Z,87.33
2019-06-26T19:54:58.554Z,86.86
2019-06-26T19:57:24.858Z,87.40
2019-06-26T19:59:51.194Z,87.97
2019-06-26T20:02:17.497Z,87.45
2019-06-26T20:04:43.821Z,85.60
2019-06-26T20:07:12.386Z,86.34
2019-06-26T20:09:48.265Z,87.44
2019-06-26T20:12:14.856Z,87.81
2019-06-26T20:14:43.615Z,88.77
2019-06-26T20:17:10.319Z,88.25
2019-06-26T20:19:37.166Z,88.01
2019-06-26T20:24:51.077Z,88.68
2019-06-26T20:27:19.664Z,89.15
2019-06-26T20:29:46.446Z,89.69
2019-06-26T20:32:15.045Z,90.06
2019-06-26T20:34:49.134Z,90.56
2019-06-26T20:37:15.883Z,91.16
2019-06-26T20:39:43.241Z,91.56
2019-06-26T20:42:10.969Z,91.81
2019-06-26T20:44:38.848Z,91.87
2019-06-26T20:47:08.305Z,92.30
2019-06-26T20:49:35.197Z,93.04
2019-06-26T20:52:02.395Z,93.45
2019-06-26T20:54:30.854Z,94.21
2019-06-26T20:56:57.794Z,94.79
2019-06-26T21:02:16.272Z,95.10
2019-06-26T21:04:43.210Z,95.39
2019-06-26T21:07:15.581Z,95.99
2019-06-26T21:09:42.078Z,96.78
2019-06-26T21:12:08.564Z,97.27
2019-06-26T21:14:35.040Z,97.61
2019-06-26T21:17:01.934Z,98.07
2019-06-26T21:19:28.846Z,98.19
2019-06-26T21:21:55.378Z,98.59
2019-06-26T21:24:21.897Z,98.97
2019-06-26T21:26:53.138Z,99.32
2019-06-26T21:29:19.562Z,99.36
2019-06-26T21:31:46.330Z,99.35
2019-06-26T21:34:14.003Z,99.45
2019-06-26T21:36:40.399Z,99.66
2019-06-26T21:39:07.004Z,99.90
2019-06-26T21:41:33.480Z,100.00
2019-06-26T21:44:01.473Z,100.00
2019-06-26T21:46:27.879Z,100.00
2019-06-26T21:48:54.320Z,100.00
2019-06-26T21:51:20.662Z,100.00
2019-06-26T21:53:47.071Z,100.00
2019-06-26T21:56:13.403Z,100.00
2019-06-26T21:58:39.715Z,100.00
2019-06-26T22:01:06.060Z,100.00
2019-06-26T22:03:32.385Z,100.00
2019-06-26T22:05:58.691Z,100.00
2019-06-26T22:08:25.053Z,100.00
2019-06-26T22:10:51.328Z,100.00
2019-06-26T22:13:17.637Z,100.00
2019-06-26T22:15:43.978Z,100.00
2019-06-26T22:18:10.274Z,100.00
2019-06-26T22:20:36.605Z,100.00
2019-06-26T22:23:02.917Z,100.00
2019-06-26T22:25:29.242Z,100.00
2019-06-26T22:27:55.553Z,100.00
2019-06-26T22:30:21.880Z,100.00
2019-06-26T22:32:48.203Z,100.00
2019-06-26T22:35:14.585Z,100.00
2019-06-26T22:37:40.911Z,100.00
2019-06-26T22:40:07.220Z,100.00
2019-06-26T22:42:33.544Z,100.00
2019-06-26T22:44:59.868Z,100.00
2019-06-26T22:47:26.186Z,100.00
2019-06-26T22:49:52.509Z,100.00
2019-06-26T22:52:18.815Z,100.00
2019-06-26T22:54:45.149Z,100.00
2019-06-26T22:57:11.463Z,100.00
2019-06-26T22:59:37.805Z,100.00
2019-06-26T23:02:04.126Z,100.00
2019-06-26T23:04:30.462Z,100.00
2019-06-26T23:06:56.777Z,100.00
2019-06-26T23:09:23.110Z,100.00
2019-06-26T23:11:49.442Z,100.00
2019-06-26T23:14:15.755Z,100.00
2019-06-26T23:16:42.085Z,100.00
2019-06-26T23:19:08.399Z,100.00
2019-06-26T23:21:34.718Z,100.00
2019-06-26T23:24:01.049Z,100.00
2019-06-26T23:26:27.361Z,100.00
2019-06-26T23:28:53.693Z,100.00
2019-06-26T23:31:20.031Z,100.00
2019-06-26T23:33:46.343Z,100.00
2019-06-26T23:36:12.673Z,100.00
2019-06-26T23:38:38.985Z,100.00
2019-06-26T23:41:05.322Z,100.00
2019-06-26T23:43:31.636Z,100.00
2019-06-26T23:45:57.969Z,100.00
2019-06-26T23:48:24.292Z,100.00
2019-06-26T23:50:50.593Z,100.00
2019-06-26T23:53:16.934Z,100.00
2019-06-26T23:55:43.239Z,100.00
2019-06-26T23:58:09.574Z,100.00
